sensor_id;sensor_type;location;lat;lon;timestamp;P1;durP1;ratioP1;P2;durP2;ratioP2
63320;SDS011;49449;48.800;9.534;2022-08-20T00:02:23;9.18;;;8.38;;
63320;SDS011;49449;48.800;9.534;2022-08-20T00:04:51;8.60;;;7.68;;
63320;SDS011;49449;48.800;9.534;2022-08-20T00:07:19;8.25;;;7.43;;
63320;SDS011;49449;48.800;9.534;2022-08-20T00:09:47;8.00;;;7.20;;
63320;SDS011;49449;48.800;9.534;2022-08-20T00:12:16;7.47;;;6.78;;
63320;SDS011;49449;48.800;9.534;2022-08-20T00:14:44;7.47;;;6.75;;
63320;SDS011;49449;48.800;9.534;2022-08-20T00:17:12;8.02;;;7.10;;
63320;SDS011;49449;48.800;9.534;2022-08-20T00:19:41;7.32;;;6.63;;
63320;SDS011;49449;48.800;9.534;2022-08-20T00:22:09;7.78;;;6.50;;
63320;SDS011;49449;48.800;9.534;2022-08-20T00:24:37;6.82;;;6.22;;
63320;SDS011;49449;48.800;9.534;2022-08-20T00:27:04;6.40;;;5.70;;
63320;SDS011;49449;48.800;9.534;2022-08-20T00:29:32;8.02;;;7.25;;
63320;SDS011;49449;48.800;9.534;2022-08-20T00:32:00;7.65;;;6.63;;
63320;SDS011;49449;48.800;9.534;2022-08-20T00:34:28;8.18;;;7.00;;
63320;SDS011;49449;48.800;9.534;2022-08-20T00:36:57;8.77;;;7.28;;
63320;SDS011;49449;48.800;9.534;2022-08-20T00:39:25;8.55;;;7.65;;
63320;SDS011;49449;48.800;9.534;2022-08-20T00:41:53;7.68;;;6.88;;
63320;SDS011;49449;48.800;9.534;2022-08-20T00:44:21;8.45;;;7.38;;
63320;SDS011;49449;48.800;9.534;2022-08-20T00:46:49;9.10;;;6.60;;
63320;SDS011;49449;48.800;9.534;2022-08-20T00:49:19;8.60;;;7.75;;
63320;SDS011;49449;48.800;9.534;2022-08-20T00:51:51;7.05;;;6.28;;
63320;SDS011;49449;48.800;9.534;2022-08-20T00:54:25;6.20;;;5.60;;
63320;SDS011;49449;48.800;9.534;2022-08-20T00:56:57;5.15;;;4.65;;
63320;SDS011;49449;48.800;9.534;2022-08-20T00:59:29;5.65;;;5.03;;
63320;SDS011;49449;48.800;9.534;2022-08-20T01:01:59;6.68;;;5.82;;
63320;SDS011;49449;48.800;9.534;2022-08-20T01:04:29;8.90;;;8.05;;
63320;SDS011;49449;48.800;9.534;2022-08-20T01:07:00;10.05;;;8.77;;
63320;SDS011;49449;48.800;9.534;2022-08-20T01:09:31;10.10;;;9.18;;
63320;SDS011;49449;48.800;9.534;2022-08-20T01:12:01;9.40;;;8.38;;
63320;SDS011;49449;48.800;9.534;2022-08-20T01:14:30;8.20;;;6.68;;
63320;SDS011;49449;48.800;9.534;2022-08-20T01:17:04;8.55;;;7.65;;
63320;SDS011;49449;48.800;9.534;2022-08-20T01:19:35;10.63;;;7.82;;
63320;SDS011;49449;48.800;9.534;2022-08-20T01:22:05;11.38;;;10.18;;
63320;SDS011;49449;48.800;9.534;2022-08-20T01:24:49;10.20;;;9.13;;
63320;SDS011;49449;48.800;9.534;2022-08-20T01:27:22;11.15;;;9.95;;
63320;SDS011;49449;48.800;9.534;2022-08-20T01:29:51;12.65;;;10.73;;
63320;SDS011;49449;48.800;9.534;2022-08-20T01:32:19;15.25;;;11.68;;
63320;SDS011;49449;48.800;9.534;2022-08-20T01:34:47;14.40;;;11.60;;
63320;SDS011;49449;48.800;9.534;2022-08-20T01:37:15;13.02;;;11.73;;
63320;SDS011;49449;48.800;9.534;2022-08-20T01:39:42;12.75;;;11.25;;
63320;SDS011;49449;48.800;9.534;2022-08-20T01:42:11;12.52;;;10.60;;
63320;SDS011;49449;48.800;9.534;2022-08-20T01:44:47;10.43;;;9.32;;
63320;SDS011;49449;48.800;9.534;2022-08-20T01:47:17;10.45;;;9.18;;
63320;SDS011;49449;48.800;9.534;2022-08-20T01:49:49;9.40;;;8.40;;
63320;SDS011;49449;48.800;9.534;2022-08-20T01:52:21;8.82;;;7.93;;
63320;SDS011;49449;48.800;9.534;2022-08-20T01:54:54;6.40;;;5.78;;
63320;SDS011;49449;48.800;9.534;2022-08-20T01:57:23;6.10;;;5.22;;
63320;SDS011;49449;48.800;9.534;2022-08-20T01:59:54;5.50;;;4.50;;
63320;SDS011;49449;48.800;9.534;2022-08-20T02:02:22;4.95;;;4.45;;
63320;SDS011;49449;48.800;9.534;2022-08-20T02:04:52;4.97;;;4.47;;
63320;SDS011;49449;48.800;9.534;2022-08-20T02:07:21;5.32;;;4.53;;
63320;SDS011;49449;48.800;9.534;2022-08-20T02:09:49;6.82;;;5.40;;
63320;SDS011;49449;48.800;9.534;2022-08-20T02:12:17;6.63;;;6.03;;
63320;SDS011;49449;48.800;9.534;2022-08-20T02:14:46;8.35;;;7.63;;
63320;SDS011;49449;48.800;9.534;2022-08-20T02:17:18;8.73;;;7.82;;
63320;SDS011;49449;48.800;9.534;2022-08-20T02:19:49;10.27;;;9.38;;
63320;SDS011;49449;48.800;9.534;2022-08-20T02:22:20;9.25;;;8.15;;
63320;SDS011;49449;48.800;9.534;2022-08-20T02:24:54;8.27;;;7.47;;
63320;SDS011;49449;48.800;9.534;2022-08-20T02:27:22;9.23;;;8.32;;
63320;SDS011;49449;48.800;9.534;2022-08-20T02:29:50;7.65;;;6.93;;
63320;SDS011;49449;48.800;9.534;2022-08-20T02:32:20;9.50;;;8.60;;
63320;SDS011;49449;48.800;9.534;2022-08-20T02:34:48;5.75;;;5.22;;
63320;SDS011;49449;48.800;9.534;2022-08-20T02:37:16;5.20;;;4.70;;
63320;SDS011;49449;48.800;9.534;2022-08-20T02:39:44;8.02;;;4.97;;
63320;SDS011;49449;48.800;9.534;2022-08-20T02:42:12;5.93;;;4.00;;
63320;SDS011;49449;48.800;9.534;2022-08-20T02:44:40;5.97;;;4.28;;
63320;SDS011;49449;48.800;9.534;2022-08-20T02:47:08;4.50;;;3.30;;
63320;SDS011;49449;48.800;9.534;2022-08-20T02:49:37;4.32;;;3.67;;
63320;SDS011;49449;48.800;9.534;2022-08-20T02:52:05;5.53;;;3.30;;
63320;SDS011;49449;48.800;9.534;2022-08-20T02:54:33;3.30;;;3.00;;
63320;SDS011;49449;48.800;9.534;2022-08-20T02:57:01;3.60;;;3.10;;
63320;SDS011;49449;48.800;9.534;2022-08-20T02:59:30;4.00;;;3.70;;
63320;SDS011;49449;48.800;9.534;2022-08-20T03:01:58;3.60;;;3.30;;
63320;SDS011;49449;48.800;9.534;2022-08-20T03:04:27;3.00;;;2.45;;
63320;SDS011;49449;48.800;9.534;2022-08-20T03:06:57;3.20;;;2.65;;
63320;SDS011;49449;48.800;9.534;2022-08-20T03:09:25;4.07;;;2.90;;
63320;SDS011;49449;48.800;9.534;2022-08-20T03:11:53;2.67;;;2.40;;
63320;SDS011;49449;48.800;9.534;2022-08-20T03:14:20;2.90;;;2.70;;
63320;SDS011;49449;48.800;9.534;2022-08-20T03:16:48;2.40;;;2.20;;
63320;SDS011;49449;48.800;9.534;2022-08-20T03:19:17;2.80;;;2.60;;
63320;SDS011;49449;48.800;9.534;2022-08-20T03:21:44;3.00;;;2.58;;
63320;SDS011;49449;48.800;9.534;2022-08-20T03:24:14;3.15;;;2.35;;
63320;SDS011;49449;48.800;9.534;2022-08-20T03:26:42;4.82;;;3.22;;
63320;SDS011;49449;48.800;9.534;2022-08-20T03:29:10;3.40;;;3.10;;
63320;SDS011;49449;48.800;9.534;2022-08-20T03:31:38;3.85;;;3.40;;
63320;SDS011;49449;48.800;9.534;2022-08-20T03:34:06;4.25;;;3.90;;
63320;SDS011;49449;48.800;9.534;2022-08-20T03:36:34;4.43;;;4.00;;
63320;SDS011;49449;48.800;9.534;2022-08-20T03:39:04;7.63;;;5.40;;
63320;SDS011;49449;48.800;9.534;2022-08-20T03:41:38;11.88;;;5.32;;
63320;SDS011;49449;48.800;9.534;2022-08-20T03:44:08;5.30;;;4.85;;
63320;SDS011;49449;48.800;9.534;2022-08-20T03:46:36;5.25;;;4.75;;
63320;SDS011;49449;48.800;9.534;2022-08-20T03:49:05;5.97;;;5.47;;
63320;SDS011;49449;48.800;9.534;2022-08-20T03:51:33;18.27;;;6.07;;
63320;SDS011;49449;48.800;9.534;2022-08-20T03:54:01;9.23;;;5.45;;
63320;SDS011;49449;48.800;9.534;2022-08-20T03:56:29;6.90;;;5.20;;
63320;SDS011;49449;48.800;9.534;2022-08-20T03:58:58;4.93;;;4.50;;
63320;SDS011;49449;48.800;9.534;2022-08-20T04:01:26;5.70;;;5.20;;
63320;SDS011;49449;48.800;9.534;2022-08-20T04:03:54;5.00;;;4.50;;
63320;SDS011;49449;48.800;9.534;2022-08-20T04:06:23;5.45;;;4.95;;
63320;SDS011;49449;48.800;9.534;2022-08-20T04:08:54;5.10;;;4.70;;
63320;SDS011;49449;48.800;9.534;2022-08-20T04:11:22;5.38;;;4.88;;
63320;SDS011;49449;48.800;9.534;2022-08-20T04:13:50;6.15;;;4.88;;
63320;SDS011;49449;48.800;9.534;2022-08-20T04:16:20;5.18;;;4.72;;
63320;SDS011;49449;48.800;9.534;2022-08-20T04:18:47;5.18;;;4.70;;
63320;SDS011;49449;48.800;9.534;2022-08-20T04:21:15;5.90;;;5.40;;
63320;SDS011;49449;48.800;9.534;2022-08-20T04:23:43;6.25;;;5.65;;
63320;SDS011;49449;48.800;9.534;2022-08-20T04:26:11;5.97;;;5.38;;
63320;SDS011;49449;48.800;9.534;2022-08-20T04:28:39;5.78;;;5.28;;
63320;SDS011;49449;48.800;9.534;2022-08-20T04:31:06;6.20;;;5.68;;
63320;SDS011;49449;48.800;9.534;2022-08-20T04:33:35;6.40;;;5.88;;
63320;SDS011;49449;48.800;9.534;2022-08-20T04:36:03;6.20;;;5.60;;
63320;SDS011;49449;48.800;9.534;2022-08-20T04:38:32;6.13;;;5.53;;
63320;SDS011;49449;48.800;9.534;2022-08-20T04:41:00;5.80;;;5.20;;
63320;SDS011;49449;48.800;9.534;2022-08-20T04:43:28;6.00;;;5.43;;
63320;SDS011;49449;48.800;9.534;2022-08-20T04:45:59;5.43;;;4.93;;
63320;SDS011;49449;48.800;9.534;2022-08-20T04:48:28;5.50;;;5.00;;
63320;SDS011;49449;48.800;9.534;2022-08-20T04:50:58;5.03;;;4.22;;
63320;SDS011;49449;48.800;9.534;2022-08-20T04:53:28;5.35;;;4.95;;
63320;SDS011;49449;48.800;9.534;2022-08-20T04:55:57;4.60;;;4.20;;
63320;SDS011;49449;48.800;9.534;2022-08-20T04:58:27;4.07;;;3.63;;
63320;SDS011;49449;48.800;9.534;2022-08-20T05:00:57;4.47;;;4.07;;
63320;SDS011;49449;48.800;9.534;2022-08-20T05:03:27;4.20;;;3.90;;
63320;SDS011;49449;48.800;9.534;2022-08-20T05:05:55;4.90;;;4.50;;
63320;SDS011;49449;48.800;9.534;2022-08-20T05:08:25;3.80;;;3.50;;
63320;SDS011;49449;48.800;9.534;2022-08-20T05:10:54;3.90;;;3.60;;
63320;SDS011;49449;48.800;9.534;2022-08-20T05:13:23;3.72;;;3.42;;
63320;SDS011;49449;48.800;9.534;2022-08-20T05:15:52;4.18;;;3.88;;
63320;SDS011;49449;48.800;9.534;2022-08-20T05:18:22;4.03;;;3.70;;
63320;SDS011;49449;48.800;9.534;2022-08-20T05:20:51;4.72;;;4.32;;
63320;SDS011;49449;48.800;9.534;2022-08-20T05:23:32;4.45;;;4.05;;
63320;SDS011;49449;48.800;9.534;2022-08-20T05:26:02;4.03;;;3.72;;
63320;SDS011;49449;48.800;9.534;2022-08-20T05:28:32;4.13;;;3.83;;
63320;SDS011;49449;48.800;9.534;2022-08-20T05:31:00;4.40;;;4.10;;
63320;SDS011;49449;48.800;9.534;2022-08-20T05:33:30;3.85;;;3.55;;
63320;SDS011;49449;48.800;9.534;2022-08-20T05:35:58;4.43;;;3.92;;
63320;SDS011;49449;48.800;9.534;2022-08-20T05:38:27;4.25;;;3.95;;
63320;SDS011;49449;48.800;9.534;2022-08-20T05:40:57;4.05;;;3.65;;
63320;SDS011;49449;48.800;9.534;2022-08-20T05:43:25;4.60;;;4.20;;
63320;SDS011;49449;48.800;9.534;2022-08-20T05:45:53;4.00;;;3.70;;
63320;SDS011;49449;48.800;9.534;2022-08-20T05:48:23;4.70;;;3.90;;
63320;SDS011;49449;48.800;9.534;2022-08-20T05:50:52;4.35;;;4.03;;
63320;SDS011;49449;48.800;9.534;2022-08-20T05:53:21;3.85;;;3.55;;
63320;SDS011;49449;48.800;9.534;2022-08-20T05:55:52;5.30;;;4.38;;
63320;SDS011;49449;48.800;9.534;2022-08-20T05:58:22;6.38;;;4.82;;
63320;SDS011;49449;48.800;9.534;2022-08-20T06:00:51;5.80;;;4.40;;
63320;SDS011;49449;48.800;9.534;2022-08-20T06:03:20;4.65;;;4.35;;
63320;SDS011;49449;48.800;9.534;2022-08-20T06:06:05;5.82;;;5.22;;
63320;SDS011;49449;48.800;9.534;2022-08-20T06:08:34;5.28;;;4.47;;
63320;SDS011;49449;48.800;9.534;2022-08-20T06:11:02;5.43;;;5.03;;
63320;SDS011;49449;48.800;9.534;2022-08-20T06:13:32;5.28;;;4.78;;
63320;SDS011;49449;48.800;9.534;2022-08-20T06:16:00;5.22;;;4.22;;
63320;SDS011;49449;48.800;9.534;2022-08-20T06:18:28;4.97;;;4.43;;
63320;SDS011;49449;48.800;9.534;2022-08-20T06:20:56;4.40;;;4.10;;
63320;SDS011;49449;48.800;9.534;2022-08-20T06:23:24;5.00;;;4.60;;
63320;SDS011;49449;48.800;9.534;2022-08-20T06:25:52;4.88;;;4.45;;
63320;SDS011;49449;48.800;9.534;2022-08-20T06:28:20;4.80;;;4.35;;
63320;SDS011;49449;48.800;9.534;2022-08-20T06:30:50;4.80;;;4.40;;
63320;SDS011;49449;48.800;9.534;2022-08-20T06:33:18;4.45;;;3.67;;
63320;SDS011;49449;48.800;9.534;2022-08-20T06:35:46;4.65;;;4.25;;
63320;SDS011;49449;48.800;9.534;2022-08-20T06:38:14;7.07;;;4.82;;
63320;SDS011;49449;48.800;9.534;2022-08-20T06:40:41;4.93;;;4.53;;
63320;SDS011;49449;48.800;9.534;2022-08-20T06:43:09;5.50;;;4.97;;
63320;SDS011;49449;48.800;9.534;2022-08-20T06:45:38;4.65;;;4.20;;
63320;SDS011;49449;48.800;9.534;2022-08-20T06:48:08;5.28;;;4.82;;
63320;SDS011;49449;48.800;9.534;2022-08-20T06:50:38;4.80;;;4.38;;
63320;SDS011;49449;48.800;9.534;2022-08-20T06:53:11;4.47;;;4.13;;
63320;SDS011;49449;48.800;9.534;2022-08-20T06:55:42;5.15;;;4.65;;
63320;SDS011;49449;48.800;9.534;2022-08-20T06:58:13;4.85;;;4.45;;
63320;SDS011;49449;48.800;9.534;2022-08-20T07:00:42;4.97;;;4.50;;
63320;SDS011;49449;48.800;9.534;2022-08-20T07:03:12;6.88;;;4.85;;
63320;SDS011;49449;48.800;9.534;2022-08-20T07:05:41;4.40;;;4.07;;
63320;SDS011;49449;48.800;9.534;2022-08-20T07:08:12;4.85;;;4.10;;
63320;SDS011;49449;48.800;9.534;2022-08-20T07:10:43;3.85;;;3.53;;
63320;SDS011;49449;48.800;9.534;2022-08-20T07:13:12;4.80;;;3.97;;
63320;SDS011;49449;48.800;9.534;2022-08-20T07:15:41;4.28;;;3.88;;
63320;SDS011;49449;48.800;9.534;2022-08-20T07:18:10;3.90;;;3.60;;
63320;SDS011;49449;48.800;9.534;2022-08-20T07:20:40;4.28;;;3.88;;
63320;SDS011;49449;48.800;9.534;2022-08-20T07:23:09;4.40;;;4.00;;
63320;SDS011;49449;48.800;9.534;2022-08-20T07:25:37;5.57;;;4.20;;
63320;SDS011;49449;48.800;9.534;2022-08-20T07:28:07;5.43;;;4.22;;
63320;SDS011;49449;48.800;9.534;2022-08-20T07:30:39;5.55;;;4.38;;
63320;SDS011;49449;48.800;9.534;2022-08-20T07:33:27;4.20;;;3.78;;
63320;SDS011;49449;48.800;9.534;2022-08-20T07:35:56;4.20;;;3.80;;
63320;SDS011;49449;48.800;9.534;2022-08-20T07:38:24;3.47;;;3.25;;
63320;SDS011;49449;48.800;9.534;2022-08-20T07:40:56;4.10;;;3.80;;
63320;SDS011;49449;48.800;9.534;2022-08-20T07:43:25;4.18;;;3.78;;
63320;SDS011;49449;48.800;9.534;2022-08-20T07:45:54;4.57;;;3.80;;
63320;SDS011;49449;48.800;9.534;2022-08-20T07:48:27;4.70;;;4.30;;
63320;SDS011;49449;48.800;9.534;2022-08-20T07:53:25;4.30;;;3.47;;
63320;SDS011;49449;48.800;9.534;2022-08-20T07:55:55;5.60;;;4.20;;
63320;SDS011;49449;48.800;9.534;2022-08-20T07:58:24;8.88;;;5.50;;
63320;SDS011;49449;48.800;9.534;2022-08-20T08:00:52;3.97;;;3.55;;
63320;SDS011;49449;48.800;9.534;2022-08-20T08:03:19;4.03;;;3.63;;
63320;SDS011;49449;48.800;9.534;2022-08-20T08:05:48;3.85;;;3.30;;
63320;SDS011;49449;48.800;9.534;2022-08-20T08:08:18;3.97;;;3.58;;
63320;SDS011;49449;48.800;9.534;2022-08-20T08:10:49;4.47;;;4.07;;
63320;SDS011;49449;48.800;9.534;2022-08-20T08:13:21;5.70;;;4.03;;
63320;SDS011;49449;48.800;9.534;2022-08-20T08:15:53;4.18;;;3.75;;
63320;SDS011;49449;48.800;9.534;2022-08-20T08:18:25;4.25;;;3.70;;
63320;SDS011;49449;48.800;9.534;2022-08-20T08:20:58;4.40;;;4.00;;
63320;SDS011;49449;48.800;9.534;2022-08-20T08:23:26;3.95;;;3.65;;
63320;SDS011;49449;48.800;9.534;2022-08-20T08:25:55;5.05;;;4.05;;
63320;SDS011;49449;48.800;9.534;2022-08-20T08:28:23;4.78;;;3.75;;
63320;SDS011;49449;48.800;9.534;2022-08-20T08:30:55;6.32;;;4.15;;
63320;SDS011;49449;48.800;9.534;2022-08-20T08:33:24;4.03;;;3.53;;
63320;SDS011;49449;48.800;9.534;2022-08-20T08:35:59;4.68;;;4.18;;
63320;SDS011;49449;48.800;9.534;2022-08-20T08:38:30;4.43;;;4.03;;
63320;SDS011;49449;48.800;9.534;2022-08-20T08:41:14;3.70;;;3.40;;
63320;SDS011;49449;48.800;9.534;2022-08-20T08:43:45;3.78;;;3.25;;
63320;SDS011;49449;48.800;9.534;2022-08-20T08:46:18;3.10;;;2.80;;
63320;SDS011;49449;48.800;9.534;2022-08-20T08:51:27;3.58;;;3.25;;
63320;SDS011;49449;48.800;9.534;2022-08-20T08:54:00;4.30;;;3.90;;
63320;SDS011;49449;48.800;9.534;2022-08-20T08:56:31;3.35;;;3.05;;
63320;SDS011;49449;48.800;9.534;2022-08-20T08:59:03;4.32;;;3.20;;
63320;SDS011;49449;48.800;9.534;2022-08-20T09:01:35;3.53;;;3.13;;
63320;SDS011;49449;48.800;9.534;2022-08-20T09:04:08;4.55;;;3.92;;
63320;SDS011;49449;48.800;9.534;2022-08-20T09:06:38;4.00;;;3.60;;
63320;SDS011;49449;48.800;9.534;2022-08-20T09:09:15;4.20;;;3.80;;
63320;SDS011;49449;48.800;9.534;2022-08-20T09:11:47;3.83;;;3.35;;
63320;SDS011;49449;48.800;9.534;2022-08-20T09:14:21;4.00;;;3.42;;
63320;SDS011;49449;48.800;9.534;2022-08-20T09:16:50;3.33;;;2.88;;
63320;SDS011;49449;48.800;9.534;2022-08-20T09:19:18;6.05;;;4.60;;
63320;SDS011;49449;48.800;9.534;2022-08-20T09:21:48;4.13;;;3.72;;
63320;SDS011;49449;48.800;9.534;2022-08-20T09:24:16;4.43;;;3.92;;
63320;SDS011;49449;48.800;9.534;2022-08-20T09:26:43;3.70;;;3.40;;
63320;SDS011;49449;48.800;9.534;2022-08-20T09:29:12;4.22;;;3.80;;
63320;SDS011;49449;48.800;9.534;2022-08-20T09:31:40;3.40;;;3.10;;
63320;SDS011;49449;48.800;9.534;2022-08-20T09:34:08;5.07;;;3.65;;
63320;SDS011;49449;48.800;9.534;2022-08-20T09:36:35;3.88;;;3.47;;
63320;SDS011;49449;48.800;9.534;2022-08-20T09:39:05;4.22;;;3.63;;
63320;SDS011;49449;48.800;9.534;2022-08-20T09:41:32;3.45;;;3.15;;
63320;SDS011;49449;48.800;9.534;2022-08-20T09:44:03;4.00;;;3.63;;
63320;SDS011;49449;48.800;9.534;2022-08-20T09:46:31;5.13;;;4.07;;
63320;SDS011;49449;48.800;9.534;2022-08-20T09:48:58;5.72;;;4.30;;
63320;SDS011;49449;48.800;9.534;2022-08-20T09:51:26;4.00;;;3.70;;
63320;SDS011;49449;48.800;9.534;2022-08-20T09:53:54;4.72;;;4.07;;
63320;SDS011;49449;48.800;9.534;2022-08-20T09:56:24;4.70;;;4.30;;
63320;SDS011;49449;48.800;9.534;2022-08-20T09:58:52;5.72;;;3.78;;
63320;SDS011;49449;48.800;9.534;2022-08-20T10:01:23;4.25;;;3.78;;
63320;SDS011;49449;48.800;9.534;2022-08-20T10:03:51;5.72;;;3.60;;
63320;SDS011;49449;48.800;9.534;2022-08-20T10:06:19;4.75;;;4.10;;
63320;SDS011;49449;48.800;9.534;2022-08-20T10:08:47;7.68;;;4.70;;
63320;SDS011;49449;48.800;9.534;2022-08-20T10:11:15;6.07;;;5.03;;
63320;SDS011;49449;48.800;9.534;2022-08-20T10:13:45;4.82;;;4.43;;
63320;SDS011;49449;48.800;9.534;2022-08-20T10:16:13;3.92;;;3.55;;
63320;SDS011;49449;48.800;9.534;2022-08-20T10:18:40;6.55;;;4.30;;
63320;SDS011;49449;48.800;9.534;2022-08-20T10:21:08;3.47;;;3.17;;
63320;SDS011;49449;48.800;9.534;2022-08-20T10:23:37;5.80;;;4.07;;
63320;SDS011;49449;48.800;9.534;2022-08-20T10:26:05;3.92;;;3.53;;
63320;SDS011;49449;48.800;9.534;2022-08-20T10:28:34;4.57;;;4.18;;
63320;SDS011;49449;48.800;9.534;2022-08-20T10:31:05;3.40;;;3.10;;
63320;SDS011;49449;48.800;9.534;2022-08-20T10:33:34;11.52;;;3.83;;
63320;SDS011;49449;48.800;9.534;2022-08-20T10:36:06;4.82;;;3.53;;
63320;SDS011;49449;48.800;9.534;2022-08-20T10:38:35;4.47;;;3.10;;
63320;SDS011;49449;48.800;9.534;2022-08-20T10:41:03;4.13;;;2.95;;
63320;SDS011;49449;48.800;9.534;2022-08-20T10:43:32;4.82;;;2.78;;
63320;SDS011;49449;48.800;9.534;2022-08-20T10:46:00;3.72;;;2.80;;
63320;SDS011;49449;48.800;9.534;2022-08-20T10:48:30;4.00;;;2.60;;
63320;SDS011;49449;48.800;9.534;2022-08-20T10:50:58;3.30;;;2.45;;
63320;SDS011;49449;48.800;9.534;2022-08-20T10:53:26;4.20;;;2.20;;
63320;SDS011;49449;48.800;9.534;2022-08-20T10:55:54;2.35;;;2.10;;
63320;SDS011;49449;48.800;9.534;2022-08-20T10:58:23;3.42;;;2.60;;
63320;SDS011;49449;48.800;9.534;2022-08-20T11:00:51;3.10;;;2.63;;
63320;SDS011;49449;48.800;9.534;2022-08-20T11:03:19;2.70;;;2.40;;
63320;SDS011;49449;48.800;9.534;2022-08-20T11:05:49;4.72;;;2.83;;
63320;SDS011;49449;48.800;9.534;2022-08-20T11:08:16;3.78;;;2.35;;
63320;SDS011;49449;48.800;9.534;2022-08-20T11:10:44;3.15;;;2.38;;
63320;SDS011;49449;48.800;9.534;2022-08-20T11:13:12;3.55;;;2.90;;
63320;SDS011;49449;48.800;9.534;2022-08-20T11:15:40;3.28;;;2.60;;
63320;SDS011;49449;48.800;9.534;2022-08-20T11:18:10;4.90;;;2.90;;
63320;SDS011;49449;48.800;9.534;2022-08-20T11:20:39;2.97;;;2.67;;
63320;SDS011;49449;48.800;9.534;2022-08-20T11:23:09;3.10;;;2.80;;
63320;SDS011;49449;48.800;9.534;2022-08-20T11:25:37;3.97;;;2.53;;
63320;SDS011;49449;48.800;9.534;2022-08-20T11:28:04;3.78;;;2.83;;
63320;SDS011;49449;48.800;9.534;2022-08-20T11:30:33;2.75;;;2.53;;
63320;SDS011;49449;48.800;9.534;2022-08-20T11:33:03;3.47;;;2.70;;
63320;SDS011;49449;48.800;9.534;2022-08-20T11:35:33;2.78;;;2.47;;
63320;SDS011;49449;48.800;9.534;2022-08-20T11:38:10;3.28;;;2.47;;
63320;SDS011;49449;48.800;9.534;2022-08-20T11:40:38;3.55;;;2.80;;
63320;SDS011;49449;48.800;9.534;2022-08-20T11:43:06;3.85;;;2.92;;
63320;SDS011;49449;48.800;9.534;2022-08-20T11:45:42;5.25;;;3.30;;
63320;SDS011;49449;48.800;9.534;2022-08-20T11:48:10;5.72;;;3.95;;
63320;SDS011;49449;48.800;9.534;2022-08-20T11:50:38;3.83;;;3.42;;
63320;SDS011;49449;48.800;9.534;2022-08-20T11:53:06;4.47;;;3.38;;
63320;SDS011;49449;48.800;9.534;2022-08-20T11:55:35;4.05;;;3.30;;
63320;SDS011;49449;48.800;9.534;2022-08-20T11:58:03;4.47;;;3.47;;
63320;SDS011;49449;48.800;9.534;2022-08-20T12:00:31;4.00;;;3.60;;
63320;SDS011;49449;48.800;9.534;2022-08-20T12:02:59;4.47;;;3.33;;
63320;SDS011;49449;48.800;9.534;2022-08-20T12:05:29;3.47;;;3.10;;
63320;SDS011;49449;48.800;9.534;2022-08-20T12:07:58;6.38;;;4.10;;
63320;SDS011;49449;48.800;9.534;2022-08-20T12:10:27;5.13;;;4.20;;
63320;SDS011;49449;48.800;9.534;2022-08-20T12:12:57;5.03;;;3.70;;
63320;SDS011;49449;48.800;9.534;2022-08-20T12:15:25;3.90;;;3.50;;
63320;SDS011;49449;48.800;9.534;2022-08-20T12:17:53;4.43;;;4.03;;
63320;SDS011;49449;48.800;9.534;2022-08-20T12:20:22;4.65;;;4.15;;
63320;SDS011;49449;48.800;9.534;2022-08-20T12:22:50;3.85;;;3.55;;
63320;SDS011;49449;48.800;9.534;2022-08-20T12:25:19;4.00;;;3.60;;
63320;SDS011;49449;48.800;9.534;2022-08-20T12:27:47;5.32;;;3.33;;
63320;SDS011;49449;48.800;9.534;2022-08-20T12:30:17;4.20;;;3.50;;
63320;SDS011;49449;48.800;9.534;2022-08-20T12:32:49;3.88;;;3.45;;
63320;SDS011;49449;48.800;9.534;2022-08-20T12:35:18;4.18;;;3.20;;
63320;SDS011;49449;48.800;9.534;2022-08-20T12:37:46;3.90;;;3.50;;
63320;SDS011;49449;48.800;9.534;2022-08-20T12:40:16;4.10;;;3.70;;
63320;SDS011;49449;48.800;9.534;2022-08-20T12:42:46;4.47;;;3.22;;
63320;SDS011;49449;48.800;9.534;2022-08-20T12:45:14;3.55;;;2.58;;
63320;SDS011;49449;48.800;9.534;2022-08-20T12:47:45;3.22;;;2.92;;
63320;SDS011;49449;48.800;9.534;2022-08-20T12:50:16;3.58;;;3.28;;
63320;SDS011;49449;48.800;9.534;2022-08-20T12:52:45;4.35;;;3.40;;
63320;SDS011;49449;48.800;9.534;2022-08-20T12:55:16;2.80;;;2.38;;
63320;SDS011;49449;48.800;9.534;2022-08-20T12:57:46;2.38;;;2.17;;
63320;SDS011;49449;48.800;9.534;2022-08-20T13:00:17;2.15;;;1.95;;
63320;SDS011;49449;48.800;9.534;2022-08-20T13:02:47;2.30;;;2.10;;
63320;SDS011;49449;48.800;9.534;2022-08-20T13:05:16;2.95;;;2.65;;
63320;SDS011;49449;48.800;9.534;2022-08-20T13:07:45;1.90;;;1.80;;
63320;SDS011;49449;48.800;9.534;2022-08-20T13:10:15;2.67;;;2.17;;
63320;SDS011;49449;48.800;9.534;2022-08-20T13:12:44;1.90;;;1.80;;
63320;SDS011;49449;48.800;9.534;2022-08-20T13:15:12;1.92;;;1.80;;
63320;SDS011;49449;48.800;9.534;2022-08-20T13:17:41;1.65;;;1.55;;
63320;SDS011;49449;48.800;9.534;2022-08-20T13:20:10;2.08;;;1.60;;
63320;SDS011;49449;48.800;9.534;2022-08-20T13:22:40;1.98;;;1.70;;
63320;SDS011;49449;48.800;9.534;2022-08-20T13:25:08;1.85;;;1.50;;
63320;SDS011;49449;48.800;9.534;2022-08-20T13:27:38;1.60;;;1.50;;
63320;SDS011;49449;48.800;9.534;2022-08-20T13:30:08;1.50;;;1.40;;
63320;SDS011;49449;48.800;9.534;2022-08-20T13:32:37;1.40;;;1.30;;
63320;SDS011;49449;48.800;9.534;2022-08-20T13:35:07;1.17;;;1.17;;
63320;SDS011;49449;48.800;9.534;2022-08-20T13:37:37;1.42;;;1.30;;
63320;SDS011;49449;48.800;9.534;2022-08-20T13:40:07;1.30;;;1.30;;
63320;SDS011;49449;48.800;9.534;2022-08-20T13:42:36;1.30;;;1.30;;
63320;SDS011;49449;48.800;9.534;2022-08-20T13:45:05;1.45;;;1.35;;
63320;SDS011;49449;48.800;9.534;2022-08-20T13:47:35;1.33;;;1.20;;
63320;SDS011;49449;48.800;9.534;2022-08-20T13:50:04;1.60;;;1.50;;
63320;SDS011;49449;48.800;9.534;2022-08-20T13:52:36;1.25;;;1.20;;
63320;SDS011;49449;48.800;9.534;2022-08-20T13:55:06;1.30;;;1.20;;
63320;SDS011;49449;48.800;9.534;2022-08-20T13:57:36;1.80;;;1.42;;
63320;SDS011;49449;48.800;9.534;2022-08-20T14:00:05;1.77;;;1.38;;
63320;SDS011;49449;48.800;9.534;2022-08-20T14:02:36;1.90;;;1.80;;
63320;SDS011;49449;48.800;9.534;2022-08-20T14:05:05;1.63;;;1.52;;
63320;SDS011;49449;48.800;9.534;2022-08-20T14:07:35;1.80;;;1.70;;
63320;SDS011;49449;48.800;9.534;2022-08-20T14:10:04;1.80;;;1.70;;
63320;SDS011;49449;48.800;9.534;2022-08-20T14:12:33;2.17;;;2.08;;
63320;SDS011;49449;48.800;9.534;2022-08-20T14:15:02;2.10;;;2.00;;
63320;SDS011;49449;48.800;9.534;2022-08-20T14:17:31;1.75;;;1.58;;
63320;SDS011;49449;48.800;9.534;2022-08-20T14:20:03;1.50;;;1.40;;
63320;SDS011;49449;48.800;9.534;2022-08-20T14:22:34;1.80;;;1.70;;
63320;SDS011;49449;48.800;9.534;2022-08-20T14:25:02;1.83;;;1.70;;
63320;SDS011;49449;48.800;9.534;2022-08-20T14:27:31;2.90;;;2.50;;
63320;SDS011;49449;48.800;9.534;2022-08-20T14:29:59;2.47;;;2.28;;
63320;SDS011;49449;48.800;9.534;2022-08-20T14:32:28;2.08;;;1.98;;
63320;SDS011;49449;48.800;9.534;2022-08-20T14:34:56;1.27;;;1.27;;
63320;SDS011;49449;48.800;9.534;2022-08-20T14:37:25;1.70;;;1.60;;
63320;SDS011;49449;48.800;9.534;2022-08-20T14:39:56;2.28;;;1.58;;
63320;SDS011;49449;48.800;9.534;2022-08-20T14:42:26;1.77;;;1.67;;
63320;SDS011;49449;48.800;9.534;2022-08-20T14:44:56;3.90;;;1.50;;
63320;SDS011;49449;48.800;9.534;2022-08-20T14:47:29;1.73;;;1.63;;
63320;SDS011;49449;48.800;9.534;2022-08-20T14:49:58;1.38;;;1.27;;
63320;SDS011;49449;48.800;9.534;2022-08-20T14:52:30;1.50;;;1.30;;
63320;SDS011;49449;48.800;9.534;2022-08-20T14:54:59;1.88;;;1.65;;
63320;SDS011;49449;48.800;9.534;2022-08-20T14:57:27;2.88;;;1.60;;
63320;SDS011;49449;48.800;9.534;2022-08-20T14:59:55;1.70;;;1.50;;
63320;SDS011;49449;48.800;9.534;2022-08-20T15:02:23;1.40;;;1.30;;
63320;SDS011;49449;48.800;9.534;2022-08-20T15:04:51;1.50;;;1.40;;
63320;SDS011;49449;48.800;9.534;2022-08-20T15:07:22;1.77;;;1.40;;